Hampshire, Illinois
Current Conditions -  °F | °C
As of 4:15 AM on Monday 26 Jan 2015 (Local Time) from KDKB Reporting Station
Clear Clear  
Wind Chill:   Ceiling: Unl
Heat Index: 11°   Visibility: 10mi
Dew Point:   Wind: 5mph
Humidity: 87%   Direction: 340°NNW
Pressure: 29.97"   Gusts: NA
Location:  42.1°N, 88.53°W
Report Text: KDKB 261015Z AUTO 34004KT 10SM CLR M11/M13 A2997 RMK AO2 T11151132
Loading
Personal Weather Stations






























Interactive Weather Map New forecast layout! Learn more

10-Day Weather Forecast

Advertisements
Track Severe Weather on mobile